Time;durP1;ratioP1;P1;durP2;ratioP2;P2;SDS_P1;SDS_P2;PMS_P1;PMS_P2;Temp;Humidity;BMP_temperature;BMP_pressure;BME280_temperature;BME280_humidity;BME280_pressure;Samples;Min_cycle;Max_cycle;Signal;HPM_P1;HPM_P2
2022/10/20 00:01:15;;;;;;;8.77;5.70;;;;;;;14.44;nan;99647.75;4949861;28;20222;-78
2022/10/20 00:03:42;;;;;;;7.63;5.20;;;;;;;14.35;nan;99649.31;4946684;28;20435;-77
2022/10/20 00:06:16;;;;;;;6.50;5.20;;;;;;;14.27;nan;99649.09;4942472;28;20185;-79
2022/10/20 00:08:42;;;;;;;7.20;5.28;;;;;;;14.19;nan;99639.09;4947954;28;20240;-78
2022/10/20 00:11:09;;;;;;;6.55;4.80;;;;;;;14.16;nan;99634.91;4945322;28;20606;-77
2022/10/20 00:13:35;;;;;;;5.78;4.45;;;;;;;14.17;nan;99635.75;4947801;28;20672;-78
2022/10/20 00:16:01;;;;;;;7.28;5.18;;;;;;;14.17;nan;99633.09;4948654;28;20181;-78
2022/10/20 00:18:27;;;;;;;8.50;5.23;;;;;;;14.18;nan;99634.81;4944722;28;20208;-77
2022/10/20 00:20:53;;;;;;;9.93;5.63;;;;;;;14.19;nan;99625.06;4950219;28;20274;-78
2022/10/20 00:23:18;;;;;;;6.83;5.67;;;;;;;14.18;nan;99618.94;4949852;28;20441;-78
2022/10/20 00:25:44;;;;;;;8.37;6.07;;;;;;;14.20;nan;99611.72;4947251;28;20265;-77
2022/10/20 00:28:10;;;;;;;9.00;5.87;;;;;;;14.22;nan;99614.25;4948539;28;20695;-76
2022/10/20 00:30:35;;;;;;;8.20;6.00;;;;;;;14.24;nan;99609.69;4951007;28;20445;-77
2022/10/20 00:33:02;;;;;;;13.50;6.20;;;;;;;14.25;nan;99617.47;4951128;28;20220;-76
2022/10/20 00:35:29;;;;;;;6.57;5.60;;;;;;;14.27;nan;99607.66;4951102;28;20185;-76
2022/10/20 00:37:54;;;;;;;7.93;7.13;;;;;;;14.28;nan;99595.25;4947790;28;20209;-77
2022/10/20 00:40:20;;;;;;;6.97;5.13;;;;;;;14.30;nan;99607.41;4949777;28;20208;-78
2022/10/20 00:42:46;;;;;;;8.00;5.67;;;;;;;14.32;nan;99617.84;4951809;28;20193;-77
2022/10/20 00:45:19;;;;;;;12.05;5.72;;;;;;;14.34;nan;99622.06;4953389;28;20192;-79
2022/10/20 00:47:44;;;;;;;7.63;5.45;;;;;;;14.37;nan;99613.06;4953065;28;20279;-79
2022/10/20 00:50:17;;;;;;;6.20;5.60;;;;;;;14.41;nan;99613.63;4952948;28;20193;-77
2022/10/20 00:52:45;;;;;;;8.93;5.22;;;;;;;14.42;nan;99599.44;4951121;28;20181;-78
2022/10/20 00:55:15;;;;;;;7.70;6.40;;;;;;;14.42;nan;99587.09;4953019;28;20196;-79
2022/10/20 00:57:45;;;;;;;7.78;6.40;;;;;;;14.39;nan;99584.69;4953454;28;20228;-79
2022/10/20 01:00:11;;;;;;;8.93;5.68;;;;;;;14.37;nan;99587.47;4957045;28;20211;-78
2022/10/20 01:02:36;;;;;;;10.17;5.67;;;;;;;14.35;nan;99578.81;4955657;28;20188;-78
2022/10/20 01:05:03;;;;;;;6.53;5.70;;;;;;;14.37;nan;99587.47;4952397;28;20554;-77
2022/10/20 01:07:28;;;;;;;9.68;7.05;;;;;;;14.37;nan;99586.63;4954531;28;20216;-77
2022/10/20 01:09:54;;;;;;;8.13;5.70;;;;;;;14.35;nan;99594.66;4955386;28;20188;-79
2022/10/20 01:12:57;;;;;;;11.00;5.60;;;;;;;14.31;nan;99593.25;4958862;28;20256;-79
2022/10/20 01:15:44;;;;;;;8.52;5.82;;;;;;;14.30;nan;99588.06;4956911;28;20686;-77
2022/10/20 01:18:36;;;;;;;9.30;6.53;;;;;;;14.28;nan;99588.19;4942739;28;20436;-79
2022/10/20 01:21:36;;;;;;;9.10;5.93;;;;;;;14.29;nan;99589.88;4923828;28;20313;-79
2022/10/20 01:24:17;;;;;;;8.93;6.75;;;;;;;14.30;nan;99574.84;4923390;28;20618;-79
2022/10/20 01:27:08;;;;;;;10.00;7.18;;;;;;;14.29;nan;99573.19;4952516;28;20209;-80
2022/10/20 01:30:05;;;;;;;9.07;6.90;;;;;;;14.30;nan;99572.22;4947336;28;20211;-79
2022/10/20 01:32:39;;;;;;;8.13;6.65;;;;;;;14.33;nan;99567.50;4949394;28;20306;-78
2022/10/20 01:35:16;;;;;;;8.50;5.72;;;;;;;14.35;nan;99552.38;4951993;28;20213;-79
2022/10/20 01:37:54;;;;;;;9.98;7.32;;;;;;;14.35;nan;99552.38;4952688;28;20248;-78
2022/10/20 01:40:32;;;;;;;9.98;7.70;;;;;;;14.37;nan;99554.91;4955362;28;20229;-78
2022/10/20 01:43:04;;;;;;;7.57;6.70;;;;;;;14.36;nan;99554.06;4957101;28;20202;-78
2022/10/20 01:45:32;;;;;;;10.60;8.52;;;;;;;14.35;nan;99556.84;4956561;28;20201;-78
2022/10/20 01:48:02;;;;;;;9.05;5.68;;;;;;;14.35;nan;99551.56;4953416;28;20217;-79
2022/10/20 01:50:28;;;;;;;6.20;5.60;;;;;;;14.33;nan;99559.59;4955437;28;20191;-81
2022/10/20 01:52:57;;;;;;;12.48;7.75;;;;;;;14.33;nan;99551.66;4956693;28;20215;-81
2022/10/20 01:55:23;;;;;;;9.20;6.88;;;;;;;14.35;nan;99557.66;4955190;28;20210;-78
2022/10/20 01:58:01;;;;;;;9.40;6.73;;;;;;;14.33;nan;99551.66;4956513;28;20240;-78
2022/10/20 02:00:27;;;;;;;8.00;6.53;;;;;;;14.34;nan;99544.59;4954134;28;20876;-78
2022/10/20 02:03:13;;;;;;;9.70;6.83;;;;;;;14.37;nan;99558.41;4954887;28;20208;-78
2022/10/20 02:05:48;;;;;;;6.90;6.03;;;;;;;14.37;nan;99553.13;4955909;28;20755;-80
2022/10/20 02:08:38;;;;;;;10.90;6.55;;;;;;;14.35;nan;99547.09;4953335;28;20238;-80
2022/10/20 02:11:06;;;;;;;8.95;7.20;;;;;;;14.32;nan;99543.88;4955937;28;20280;-81
2022/10/20 02:13:36;;;;;;;9.95;6.40;;;;;;;14.29;nan;99542.31;4957886;28;20261;-79
2022/10/20 02:16:09;;;;;;;9.50;7.28;;;;;;;14.26;nan;99547.00;4959636;28;20204;-78
2022/10/20 02:18:40;;;;;;;12.40;6.63;;;;;;;14.20;nan;99556.25;4957509;28;20230;-81
2022/10/20 02:21:07;;;;;;;9.07;6.38;;;;;;;14.14;nan;99554.94;4957476;28;20237;-77
2022/10/20 02:23:36;;;;;;;7.07;6.07;;;;;;;14.09;nan;99559.72;4958464;28;20298;-78
2022/10/20 02:26:04;;;;;;;8.20;5.93;;;;;;;14.07;nan;99568.75;4959435;28;20207;-78
2022/10/20 02:28:33;;;;;;;10.85;6.43;;;;;;;14.07;nan;99558.16;4953598;28;20226;-81
2022/10/20 02:30:58;;;;;;;10.82;7.25;;;;;;;14.06;nan;99561.78;4946195;28;20836;-80
2022/10/20 02:33:25;;;;;;;9.20;5.80;;;;;;;14.07;nan;99555.53;4955466;28;20202;-78
2022/10/20 02:35:56;;;;;;;7.32;5.32;;;;;;;14.04;nan;99553.13;4959905;28;20207;-77
2022/10/20 02:38:22;;;;;;;8.63;6.70;;;;;;;14.00;nan;99541.97;4958475;28;20243;-79
2022/10/20 02:40:47;;;;;;;10.23;6.93;;;;;;;13.97;nan;99541.41;4959107;28;20226;-80
2022/10/20 02:43:13;;;;;;;12.57;8.30;;;;;;;13.93;nan;99541.66;4954764;28;20336;-77
2022/10/20 02:45:38;;;;;;;11.03;7.80;;;;;;;13.89;nan;99534.06;4956881;28;20413;-78
2022/10/20 02:48:04;;;;;;;11.00;7.87;;;;;;;13.90;nan;99541.84;4959029;28;20324;-79
2022/10/20 02:50:29;;;;;;;12.35;7.40;;;;;;;13.92;nan;99541.75;4956261;28;20206;-77
2022/10/20 02:52:55;;;;;;;10.37;6.67;;;;;;;13.93;nan;99551.34;4960131;28;20216;-78
2022/10/20 02:55:20;;;;;;;10.33;5.90;;;;;;;13.94;nan;99535.38;4956028;28;20280;-79
2022/10/20 02:57:46;;;;;;;10.27;6.73;;;;;;;13.93;nan;99523.16;4958389;28;20316;-77
2022/10/20 03:00:12;;;;;;;9.03;7.57;;;;;;;13.91;nan;99518.97;4958570;28;20253;-78
2022/10/20 03:02:37;;;;;;;9.48;7.10;;;;;;;13.88;nan;99517.41;4956073;28;20267;-80
2022/10/20 03:05:03;;;;;;;9.33;7.30;;;;;;;13.90;nan;99514.63;4957519;28;20211;-78
2022/10/20 03:07:29;;;;;;;10.73;8.60;;;;;;;13.92;nan;99518.81;4958838;28;20232;-78
2022/10/20 03:09:54;;;;;;;12.80;8.50;;;;;;;13.95;nan;99513.28;4957436;28;20644;-81
2022/10/20 03:12:19;;;;;;;17.30;7.60;;;;;;;13.98;nan;99517.50;4960594;28;20696;-78
2022/10/20 03:14:45;;;;;;;10.40;7.27;;;;;;;13.98;nan;99512.22;4957574;28;20254;-79
2022/10/20 03:17:10;;;;;;;13.70;6.77;;;;;;;14.00;nan;99517.38;4962553;28;20727;-80
2022/10/20 03:19:36;;;;;;;13.70;7.40;;;;;;;14.00;nan;99515.56;4954307;28;21227;-77
2022/10/20 03:22:01;;;;;;;7.97;5.43;;;;;;;13.99;nan;99519.19;4954094;28;20205;-77
2022/10/20 03:24:26;;;;;;;9.13;6.83;;;;;;;13.93;nan;99514.38;4948190;28;20207;-78
2022/10/20 03:26:52;;;;;;;9.30;5.80;;;;;;;13.84;nan;99517.75;4957874;28;20205;-77
2022/10/20 03:29:17;;;;;;;8.13;4.90;;;;;;;13.76;nan;99515.72;4957302;28;20711;-77
2022/10/20 03:31:43;;;;;;;6.23;4.40;;;;;;;13.70;nan;99510.91;4959157;28;20951;-77
2022/10/20 03:34:08;;;;;;;6.77;5.10;;;;;;;13.66;nan;99512.97;4955774;28;20286;-77
2022/10/20 03:36:33;;;;;;;8.77;5.33;;;;;;;13.64;nan;99501.69;4944805;28;20510;-78
2022/10/20 03:38:59;;;;;;;7.83;4.87;;;;;;;13.64;nan;99503.47;4934771;28;20238;-80
2022/10/20 03:41:24;;;;;;;7.50;6.07;;;;;;;13.63;nan;99502.63;4945568;28;20404;-77
2022/10/20 03:43:50;;;;;;;10.67;5.50;;;;;;;13.63;nan;99496.50;4950260;28;20201;-79
2022/10/20 03:46:15;;;;;;;6.10;5.00;;;;;;;13.63;nan;99485.94;4952450;28;20194;-78
2022/10/20 03:48:41;;;;;;;12.50;6.30;;;;;;;13.63;nan;99491.22;4954468;28;20629;-79
2022/10/20 03:51:08;;;;;;;7.87;6.00;;;;;;;13.61;nan;99491.38;4937021;28;20552;-80
2022/10/20 03:53:34;;;;;;;15.73;6.45;;;;;;;13.60;nan;99492.31;4956759;28;20203;-79
2022/10/20 03:56:05;;;;;;;8.40;6.63;;;;;;;13.61;nan;99493.13;4957276;28;20816;-77
2022/10/20 03:58:30;;;;;;;6.43;5.50;;;;;;;13.62;nan;99492.19;4953443;28;20859;-80
2022/10/20 04:00:56;;;;;;;12.90;6.00;;;;;;;13.63;nan;99480.66;4954279;28;20198;-78
2022/10/20 04:03:22;;;;;;;8.55;5.63;;;;;;;13.63;nan;99475.41;4953085;28;20277;-77
2022/10/20 04:05:47;;;;;;;6.00;5.40;;;;;;;13.62;nan;99471.09;4956808;28;20242;-77
2022/10/20 04:08:12;;;;;;;7.97;5.80;;;;;;;13.60;nan;99470.34;4954267;28;20217;-77
2022/10/20 04:10:38;;;;;;;10.60;6.47;;;;;;;13.60;nan;99476.47;4954334;28;20197;-77
2022/10/20 04:13:03;;;;;;;8.97;6.90;;;;;;;13.61;nan;99469.38;4955647;28;20282;-80
2022/10/20 04:15:29;;;;;;;8.63;7.43;;;;;;;13.62;nan;99474.56;4956689;28;20283;-79
2022/10/20 04:17:55;;;;;;;6.73;5.87;;;;;;;13.65;nan;99484.03;4954146;28;20737;-77
2022/10/20 04:20:20;;;;;;;13.90;7.20;;;;;;;13.66;nan;99477.78;4953183;28;20505;-78
2022/10/20 04:22:46;;;;;;;8.87;7.60;;;;;;;13.68;nan;99479.34;4954259;28;20193;-79
2022/10/20 04:25:11;;;;;;;9.10;6.10;;;;;;;13.69;nan;99480.19;4953785;28;20683;-78
2022/10/20 04:27:38;;;;;;;11.00;8.10;;;;;;;13.69;nan;99475.75;4956498;28;20355;-79
2022/10/20 04:30:04;;;;;;;9.68;6.93;;;;;;;13.70;nan;99460.75;4957784;28;20189;-79
2022/10/20 04:32:30;;;;;;;9.60;6.60;;;;;;;13.71;nan;99457.16;4938845;28;20531;-77
2022/10/20 04:34:55;;;;;;;7.80;6.33;;;;;;;13.71;nan;99449.22;4955615;28;20256;-78
2022/10/20 04:37:21;;;;;;;8.90;5.83;;;;;;;13.71;nan;99446.59;4936248;28;20492;-78
2022/10/20 04:39:46;;;;;;;6.43;5.53;;;;;;;13.73;nan;99455.25;4956324;28;20209;-78
2022/10/20 04:42:12;;;;;;;7.63;5.70;;;;;;;13.72;nan;99453.56;4956633;28;20672;-79
2022/10/20 04:44:37;;;;;;;11.80;6.20;;;;;;;13.69;nan;99449.38;4956791;28;20234;-80
2022/10/20 04:47:03;;;;;;;6.33;5.07;;;;;;;13.67;nan;99466.28;4954410;28;20187;-79
2022/10/20 04:49:28;;;;;;;6.90;6.03;;;;;;;13.64;nan;99458.63;4955208;28;20624;-79
2022/10/20 04:51:53;;;;;;;7.23;6.17;;;;;;;13.64;nan;99462.09;4956034;28;20194;-80
2022/10/20 04:54:19;;;;;;;6.97;5.83;;;;;;;13.66;nan;99464.59;4954846;28;20559;-79
2022/10/20 04:56:44;;;;;;;7.73;5.50;;;;;;;13.66;nan;99470.72;4952876;28;20210;-79
2022/10/20 04:59:10;;;;;;;8.57;6.30;;;;;;;13.64;nan;99475.28;4973229;23;20721;-75
2022/10/20 05:01:35;;;;;;;7.20;6.13;;;;;;;13.59;nan;99466.88;4965398;28;20915;-75
2022/10/20 05:04:00;;;;;;;10.10;6.40;;;;;;;13.53;nan;99475.28;4978906;28;20284;-75
2022/10/20 05:06:29;;;;;;;6.70;5.27;;;;;;;13.44;nan;99463.63;4980168;28;20549;-75
2022/10/20 05:08:57;;;;;;;8.65;5.68;;;;;;;13.38;nan;99464.13;4962994;28;20221;-74
2022/10/20 05:11:25;;;;;;;9.25;5.80;;;;;;;13.37;nan;99464.25;4960621;28;20764;-75
2022/10/20 05:13:50;;;;;;;7.43;5.82;;;;;;;13.37;nan;99462.44;4962480;28;20189;-75
2022/10/20 05:16:16;;;;;;;8.17;5.77;;;;;;;13.40;nan;99453.47;4959939;28;20740;-75
2022/10/20 05:18:43;;;;;;;9.10;5.82;;;;;;;13.41;nan;99461.22;4956754;28;20214;-74
2022/10/20 05:21:11;;;;;;;10.52;5.28;;;;;;;13.43;nan;99461.13;4960927;28;20232;-75
2022/10/20 05:23:38;;;;;;;8.93;6.82;;;;;;;13.43;nan;99454.06;4957445;28;20236;-75
2022/10/20 05:26:06;;;;;;;11.40;5.90;;;;;;;13.37;nan;99446.63;4960636;28;20193;-75
2022/10/20 05:28:32;;;;;;;8.55;7.10;;;;;;;13.30;nan;99439.28;4958847;28;20595;-75
2022/10/20 05:31:06;;;;;;;9.07;6.87;;;;;;;13.25;nan;99451.00;4957793;28;20190;-75
2022/10/20 05:33:33;;;;;;;11.35;7.53;;;;;;;13.21;nan;99443.47;4960935;28;20918;-75
2022/10/20 05:35:58;;;;;;;10.45;6.60;;;;;;;13.20;nan;99442.59;4958256;28;20476;-75
2022/10/20 05:38:24;;;;;;;8.07;7.27;;;;;;;13.20;nan;99431.22;4958682;28;20245;-75
2022/10/20 05:40:49;;;;;;;7.50;6.23;;;;;;;13.20;nan;99433.84;4954997;28;20204;-75
2022/10/20 05:43:15;;;;;;;8.77;6.23;;;;;;;13.22;nan;99438.03;4959028;28;20643;-75
2022/10/20 05:45:40;;;;;;;13.90;6.80;;;;;;;13.28;nan;99449.94;4960504;28;20626;-75
2022/10/20 05:48:06;;;;;;;9.67;6.03;;;;;;;13.31;nan;99438.31;4960370;28;20874;-75
2022/10/20 05:50:32;;;;;;;10.13;7.77;;;;;;;13.34;nan;99449.50;4958862;28;20199;-75
2022/10/20 05:52:58;;;;;;;10.77;5.78;;;;;;;13.38;nan;99453.56;4960307;28;20227;-75
2022/10/20 05:55:24;;;;;;;12.97;8.07;;;;;;;13.42;nan;99448.88;4959746;28;20569;-75
2022/10/20 05:57:49;;;;;;;8.23;6.30;;;;;;;13.45;nan;99462.69;4958236;28;20212;-75
2022/10/20 06:00:17;;;;;;;12.33;7.07;;;;;;;13.49;nan;99468.56;4960284;28;20471;-75
2022/10/20 06:02:43;;;;;;;9.15;6.72;;;;;;;13.45;nan;99469.78;4958096;28;20203;-75
2022/10/20 06:05:08;;;;;;;6.23;5.53;;;;;;;13.39;nan;99451.75;4959165;28;20962;-75
2022/10/20 06:07:34;;;;;;;11.40;7.60;;;;;;;13.31;nan;99439.16;4959878;28;20304;-75
2022/10/20 06:10:00;;;;;;;13.18;6.53;;;;;;;13.25;nan;99444.88;4958185;28;20684;-75
2022/10/20 06:12:25;;;;;;;10.77;5.60;;;;;;;13.21;nan;99443.47;4958458;28;20717;-75
2022/10/20 06:14:51;;;;;;;9.00;6.87;;;;;;;13.22;nan;99437.22;4960889;28;20397;-75
2022/10/20 06:17:16;;;;;;;10.33;7.87;;;;;;;13.22;nan;99445.13;4959197;28;20209;-75
2022/10/20 06:19:43;;;;;;;8.82;7.88;;;;;;;13.23;nan;99452.06;4960237;28;20578;-75
2022/10/20 06:22:10;;;;;;;11.98;8.45;;;;;;;13.25;nan;99469.47;4944306;28;20187;-75
2022/10/20 06:24:45;;;;;;;10.82;8.20;;;;;;;13.31;nan;99467.34;4960720;28;20208;-75
2022/10/20 06:27:12;;;;;;;12.63;6.30;;;;;;;13.33;nan;99458.34;4960081;28;20196;-75
2022/10/20 06:30:00;;;;;;;9.15;7.30;;;;;;;13.34;nan;99449.50;4958539;28;20295;-75
2022/10/20 06:32:33;;;;;;;11.27;8.52;;;;;;;13.34;nan;99460.06;4958694;28;20229;-75
2022/10/20 06:34:59;;;;;;;9.38;7.40;;;;;;;13.39;nan;99478.13;4961875;28;20789;-75
2022/10/20 06:37:24;;;;;;;10.77;9.67;;;;;;;13.43;nan;99474.31;4960362;28;20382;-75
2022/10/20 06:39:50;;;;;;;9.93;8.67;;;;;;;13.50;nan;99480.78;4958677;28;20240;-75
2022/10/20 06:42:15;;;;;;;16.00;10.40;;;;;;;13.56;nan;99480.31;4957774;28;20263;-75
2022/10/20 06:44:44;;;;;;;8.90;7.45;;;;;;;13.64;nan;99477.09;4959734;28;20193;-75
2022/10/20 06:47:09;;;;;;;12.00;9.33;;;;;;;13.70;nan;99473.97;4956382;28;20188;-76
2022/10/20 06:49:35;;;;;;;16.03;9.07;;;;;;;13.78;nan;99478.63;4939191;28;20252;-75
2022/10/20 06:52:00;;;;;;;13.23;9.00;;;;;;;13.85;nan;99470.13;4952090;28;20190;-75
2022/10/20 06:54:25;;;;;;;22.43;8.60;;;;;;;13.92;nan;99467.81;4953260;28;20195;-75
2022/10/20 06:56:51;;;;;;;16.63;9.67;;;;;;;13.99;nan;99470.78;4957056;28;20392;-75
2022/10/20 06:59:16;;;;;;;14.50;10.30;;;;;;;14.06;nan;99472.00;4951415;28;20222;-75
2022/10/20 07:01:42;;;;;;;26.30;12.73;;;;;;;14.09;nan;99482.31;4950990;28;21153;-75
2022/10/20 07:04:12;;;;;;;17.67;11.30;;;;;;;14.14;nan;99495.97;4956003;28;20194;-75
2022/10/20 07:06:39;;;;;;;22.05;13.90;;;;;;;14.13;nan;99494.31;4097743;28;10015064;-75
2022/10/20 07:09:10;;;;;;;16.00;9.65;;;;;;;14.14;nan;99495.97;4953225;28;21038;-75
2022/10/20 07:11:36;;;;;;;14.73;8.02;;;;;;;14.15;nan;99495.88;4953224;28;20200;-75
2022/10/20 07:14:02;;;;;;;17.10;8.57;;;;;;;14.20;nan;99510.50;4955628;28;20194;-75
2022/10/20 07:16:30;;;;;;;9.68;6.90;;;;;;;14.24;nan;99517.22;4954443;28;20194;-75
2022/10/20 07:18:56;;;;;;;15.07;7.70;;;;;;;14.30;nan;99514.09;4951575;28;20713;-75
2022/10/20 07:21:25;;;;;;;9.97;7.13;;;;;;;14.37;nan;99534.63;4956483;28;20186;-75
2022/10/20 07:23:51;;;;;;;9.00;7.40;;;;;;;14.47;nan;99542.63;4958769;28;20180;-75
2022/10/20 07:26:20;;;;;;;8.40;5.93;;;;;;;14.56;nan;99533.16;4960008;28;20203;-76
2022/10/20 07:28:55;;;;;;;11.88;7.65;;;;;;;14.64;nan;99549.25;4957035;28;20209;-75
2022/10/20 07:31:23;;;;;;;9.10;6.30;;;;;;;14.70;nan;99564.59;4956096;28;20277;-75
2022/10/20 07:33:49;;;;;;;9.52;7.50;;;;;;;14.75;nan;99578.28;4958204;28;20541;-75
2022/10/20 07:36:20;;;;;;;8.90;6.87;;;;;;;14.79;nan;99577.03;4956888;28;20192;-76
2022/10/20 07:38:47;;;;;;;10.27;7.18;;;;;;;14.89;nan;99563.09;4957106;28;21028;-76
2022/10/20 07:41:14;;;;;;;14.18;9.43;;;;;;;14.99;nan;99577.25;4955082;28;20206;-76
2022/10/20 07:43:40;;;;;;;20.98;8.75;;;;;;;15.07;nan;99574.81;4957824;28;20209;-75
2022/10/20 07:46:07;;;;;;;10.77;6.13;;;;;;;15.15;nan;99569.72;4961246;28;20760;-75
2022/10/20 07:48:32;;;;;;;8.77;7.75;;;;;;;15.27;nan;99576.59;4956572;28;20220;-75
2022/10/20 07:51:27;;;;;;;10.60;8.20;;;;;;;15.43;nan;99565.56;4956239;28;20211;-75
2022/10/20 07:53:57;;;;;;;12.93;7.93;;;;;;;15.61;nan;99571.13;4956762;28;20541;-74
2022/10/20 07:56:23;;;;;;;12.45;7.80;;;;;;;15.78;nan;99569.72;4957764;28;20209;-75
2022/10/20 07:58:49;;;;;;;15.00;9.38;;;;;;;15.96;nan;99577.91;4956741;28;20272;-76
2022/10/20 08:01:14;;;;;;;10.60;8.37;;;;;;;16.11;nan;99573.88;4954699;28;21080;-76
2022/10/20 08:03:40;;;;;;;16.40;9.27;;;;;;;16.24;nan;99576.31;4956869;28;20201;-76
2022/10/20 08:06:09;;;;;;;15.40;9.60;;;;;;;16.36;nan;99559.34;4958323;28;20287;-75
2022/10/20 08:08:34;;;;;;;12.30;9.45;;;;;;;16.47;nan;99553.09;4956399;28;20697;-75
2022/10/20 08:11:00;;;;;;;19.67;9.70;;;;;;;16.51;nan;99553.66;4956979;28;20193;-76
2022/10/20 08:13:26;;;;;;;11.97;9.20;;;;;;;16.56;nan;99562.88;4956674;28;20236;-76
2022/10/20 08:15:53;;;;;;;12.23;9.50;;;;;;;16.66;nan;99554.06;4956101;28;20819;-75
2022/10/20 08:18:19;;;;;;;14.45;9.40;;;;;;;16.68;nan;99546.81;4954665;28;20210;-76
2022/10/20 08:20:45;;;;;;;13.33;9.57;;;;;;;16.68;nan;99536.22;4957048;28;20216;-75
2022/10/20 08:23:14;;;;;;;18.33;9.20;;;;;;;16.64;nan;99535.66;4951564;28;20461;-75
2022/10/20 08:25:40;;;;;;;15.60;11.95;;;;;;;16.65;nan;99536.50;4954063;28;20200;-75
2022/10/20 08:28:06;;;;;;;12.52;10.20;;;;;;;16.69;nan;99537.88;4959053;28;20696;-75
2022/10/20 08:30:32;;;;;;;14.80;9.93;;;;;;;16.81;nan;99542.13;4956243;28;20199;-75
2022/10/20 08:32:57;;;;;;;15.50;9.13;;;;;;;16.97;nan;99539.75;4953536;28;20670;-75
2022/10/20 08:35:23;;;;;;;18.60;9.13;;;;;;;17.07;nan;99541.56;4956419;28;20195;-75
2022/10/20 08:37:49;;;;;;;12.00;8.37;;;;;;;17.10;nan;99531.50;4956175;28;20616;-75
2022/10/20 08:40:21;;;;;;;15.30;10.00;;;;;;;17.10;nan;99525.38;4955625;28;20608;-75
2022/10/20 08:42:47;;;;;;;13.07;9.20;;;;;;;17.07;nan;99525.66;4961133;28;20206;-76
2022/10/20 08:45:16;;;;;;;14.73;9.85;;;;;;;17.06;nan;99524.78;4955465;28;20197;-75
2022/10/20 08:47:43;;;;;;;18.23;11.32;;;;;;;17.08;nan;99522.00;4957188;28;20197;-75
2022/10/20 08:50:14;;;;;;;15.23;9.38;;;;;;;17.09;nan;99518.34;4953985;28;20280;-76
2022/10/20 08:52:42;;;;;;;13.68;10.40;;;;;;;17.11;nan;99511.09;4955423;28;20200;-75
2022/10/20 08:55:19;;;;;;;22.63;10.88;;;;;;;17.15;nan;99512.50;4951903;28;20540;-75
2022/10/20 08:57:47;;;;;;;13.63;10.25;;;;;;;17.19;nan;99514.72;4954278;28;20737;-75
2022/10/20 09:00:20;;;;;;;17.08;10.43;;;;;;;17.23;nan;99505.50;4953645;28;20742;-75
2022/10/20 09:02:47;;;;;;;16.40;11.13;;;;;;;17.28;nan;99505.06;4953711;28;20194;-75
2022/10/20 09:05:15;;;;;;;15.73;10.18;;;;;;;17.31;nan;99502.13;4958514;28;20422;-75
2022/10/20 09:07:40;;;;;;;16.60;11.32;;;;;;;17.31;nan;99496.81;4955795;28;20194;-75
2022/10/20 09:10:29;;;;;;;14.13;11.07;;;;;;;17.32;nan;99495.84;4953204;28;20194;-75
2022/10/20 09:12:54;;;;;;;22.17;12.15;;;;;;;17.31;nan;99502.13;4952660;28;20196;-75
2022/10/20 09:15:21;;;;;;;22.73;12.63;;;;;;;17.36;nan;99499.03;4939721;28;20635;-76
2022/10/20 09:17:57;;;;;;;19.77;12.82;;;;;;;17.41;nan;99494.13;4937922;28;20472;-75
2022/10/20 09:20:43;;;;;;;18.13;13.48;;;;;;;17.47;nan;99482.91;4937979;29;20218;-75
2022/10/20 09:23:15;;;;;;;18.40;12.52;;;;;;;17.50;nan;99490.63;4935108;29;20868;-75
2022/10/20 09:25:42;;;;;;;17.85;11.82;;;;;;;17.57;nan;99490.88;4938289;29;20207;-75
2022/10/20 09:28:23;;;;;;;19.85;13.50;;;;;;;17.64;nan;99482.19;4939176;28;20391;-75
2022/10/20 09:30:49;;;;;;;19.35;13.20;;;;;;;17.68;nan;99493.34;4935949;29;20208;-75
2022/10/20 09:33:22;;;;;;;16.50;11.10;;;;;;;17.70;nan;99486.06;4936064;29;20192;-76
2022/10/20 09:35:49;;;;;;;19.20;11.93;;;;;;;17.73;nan;99488.44;4951830;28;20565;-75
2022/10/20 09:38:22;;;;;;;15.52;12.38;;;;;;;17.75;nan;99475.84;4936328;28;20223;-75
2022/10/20 09:40:54;;;;;;;16.38;11.35;;;;;;;17.79;nan;99485.22;4937657;28;20227;-75
2022/10/20 09:43:20;;;;;;;14.50;11.15;;;;;;;17.81;nan;99493.88;4935980;28;20202;-75
2022/10/20 09:45:52;;;;;;;16.80;11.47;;;;;;;17.82;nan;99487.59;4936718;29;20382;-75
2022/10/20 09:48:36;;;;;;;13.50;10.77;;;;;;;17.89;nan;99495.81;4935822;28;20216;-75
2022/10/20 09:51:06;;;;;;;19.17;12.70;;;;;;;17.94;nan;99488.22;4934445;29;21256;-76
2022/10/20 09:53:37;;;;;;;14.88;11.18;;;;;;;17.99;nan;99491.28;4935933;29;20218;-76
2022/10/20 09:56:03;;;;;;;18.08;12.88;;;;;;;18.04;nan;99470.41;4934608;28;20188;-75
2022/10/20 09:58:32;;;;;;;16.90;12.88;;;;;;;18.10;nan;99466.31;4934254;29;20244;-75
2022/10/20 10:01:26;;;;;;;18.07;12.80;;;;;;;18.21;nan;99457.31;4934377;29;20210;-75
2022/10/20 10:03:57;;;;;;;18.27;12.70;;;;;;;18.29;nan;99452.91;4932492;29;20581;-75
2022/10/20 10:06:45;;;;;;;17.90;11.90;;;;;;;18.34;nan;99457.78;4935791;29;20226;-75
2022/10/20 10:09:33;;;;;;;16.63;12.10;;;;;;;18.35;nan;99448.78;4935697;29;20470;-75
2022/10/20 10:12:04;;;;;;;15.20;10.47;;;;;;;18.35;nan;99457.59;4933966;29;20451;-75
2022/10/20 10:14:32;;;;;;;17.20;11.90;;;;;;;18.37;nan;99464.59;4933481;29;20465;-75
2022/10/20 10:16:58;;;;;;;15.93;10.77;;;;;;;18.35;nan;99472.72;4934802;28;20534;-75
2022/10/20 10:19:27;;;;;;;14.00;10.27;;;;;;;18.34;nan;99469.25;4935466;29;20673;-75
2022/10/20 10:21:59;;;;;;;17.13;10.13;;;;;;;18.31;nan;99464.22;4933394;29;20461;-75
2022/10/20 10:24:35;;;;;;;13.63;10.70;;;;;;;18.28;nan;99459.22;4935253;29;20489;-75
2022/10/20 10:27:01;;;;;;;13.77;10.70;;;;;;;18.26;nan;99461.19;4934442;29;21102;-75
2022/10/20 10:29:30;;;;;;;13.50;8.70;;;;;;;18.26;nan;99458.50;4932026;28;20612;-75
2022/10/20 10:32:01;;;;;;;11.30;9.47;;;;;;;18.26;nan;99463.00;4934628;29;20593;-75
2022/10/20 10:35:06;;;;;;;11.93;9.73;;;;;;;18.25;nan;99463.97;4934378;29;20510;-75
2022/10/20 10:37:33;;;;;;;10.50;8.00;;;;;;;18.23;nan;99461.47;4925367;28;20510;-75
2022/10/20 10:39:58;;;;;;;12.63;8.90;;;;;;;18.24;nan;99459.66;4935788;28;21033;-75
2022/10/20 10:42:34;;;;;;;14.53;10.27;;;;;;;18.24;nan;99444.53;4932972;29;20693;-75
2022/10/20 10:45:24;;;;;;;16.07;9.87;;;;;;;18.25;nan;99438.22;4931090;29;20208;-75
2022/10/20 10:48:46;;;;;;;13.37;10.00;;;;;;;18.23;nan;99429.56;4933278;28;20494;-75
2022/10/20 10:51:22;;;;;;;12.47;8.90;;;;;;;18.25;nan;99435.56;4858633;29;20547;-75
2022/10/20 10:54:15;;;;;;;11.97;8.80;;;;;;;18.28;nan;99432.63;4857700;29;20481;-75
2022/10/20 10:56:55;;;;;;;10.80;8.10;;;;;;;18.34;nan;99424.03;4926255;28;20636;-75
2022/10/20 10:59:42;;;;;;;11.97;8.57;;;;;;;18.41;nan;99421.59;4974716;23;20508;-75
2022/10/20 11:02:44;;;;;;;11.70;9.13;;;;;;;18.42;nan;99407.31;4963556;28;20473;-75
2022/10/20 11:05:26;;;;;;;12.83;8.37;;;;;;;18.46;nan;99413.16;4975386;28;21161;-76
2022/10/20 11:08:28;;;;;;;14.10;9.03;;;;;;;18.48;nan;99411.19;4976119;28;20458;-76
2022/10/20 11:11:12;;;;;;;12.67;9.40;;;;;;;18.52;nan;99410.75;4956479;28;20516;-75
2022/10/20 11:14:16;;;;;;;10.07;8.97;;;;;;;18.62;nan;99402.66;4955278;28;20950;-76
2022/10/20 11:16:49;;;;;;;10.70;8.33;;;;;;;18.65;nan;99396.19;4939725;28;21331;-75
2022/10/20 11:19:35;;;;;;;10.10;8.30;;;;;;;18.68;nan;99398.53;4957994;28;20488;-75
2022/10/20 11:22:22;;;;;;;10.10;9.03;;;;;;;18.72;nan;99389.28;4957468;28;20459;-75
2022/10/20 11:25:16;;;;;;;14.80;8.77;;;;;;;18.79;nan;99382.34;4957235;28;20419;-76
2022/10/20 11:27:42;;;;;;;17.13;9.17;;;;;;;18.82;nan;99394.50;4956491;28;20441;-76
2022/10/20 11:30:18;;;;;;;12.97;9.00;;;;;;;18.85;nan;99403.03;4955832;28;22878;-76
2022/10/20 11:33:17;;;;;;;9.87;8.60;;;;;;;18.91;nan;99409.56;4957047;28;20205;-76
2022/10/20 11:36:07;;;;;;;10.40;7.43;;;;;;;18.95;nan;99397.59;4955188;28;20418;-76
2022/10/20 11:38:55;;;;;;;12.30;7.77;;;;;;;19.00;nan;99398.78;4956965;28;21049;-75
2022/10/20 11:41:34;;;;;;;15.17;8.70;;;;;;;19.04;nan;99394.00;4955587;28;20787;-76
2022/10/20 11:44:16;;;;;;;13.53;9.10;;;;;;;19.07;nan;99398.19;4956778;28;20954;-76
2022/10/20 11:46:54;;;;;;;19.00;8.60;;;;;;;19.10;nan;99405.84;4955154;28;20480;-77
2022/10/20 11:49:19;;;;;;;14.10;8.50;;;;;;;19.16;nan;99403.38;4958103;28;21088;-77
2022/10/20 11:51:54;;;;;;;14.07;9.70;;;;;;;19.24;nan;99390.13;4955123;28;20592;-77
2022/10/20 11:54:38;;;;;;;8.47;7.33;;;;;;;19.31;nan;99384.13;4956348;28;20283;-76
2022/10/20 11:57:28;;;;;;;15.20;8.50;;;;;;;19.34;nan;99387.34;4955932;28;20549;-77
2022/10/20 12:00:12;;;;;;;8.87;7.97;;;;;;;19.38;nan;99383.34;4955989;28;20603;-77